createdAt,value
2023-05-24T00:02:08.682Z,100069.97
2023-05-24T00:04:35.357Z,100065.06
2023-05-24T00:07:04.869Z,100052.31
2023-05-24T00:09:31.532Z,100044.16
2023-05-24T00:11:58.837Z,100044.03
2023-05-24T00:14:25.781Z,100039.78
2023-05-24T00:16:52.559Z,100040.28
2023-05-24T00:19:22.894Z,100045.00
2023-05-24T00:21:50.199Z,100045.00
2023-05-24T00:24:17.553Z,100050.16
2023-05-24T00:26:45.272Z,100045.38
2023-05-24T00:29:11.895Z,100049.13
2023-05-24T00:31:38.784Z,100045.75
2023-05-24T00:34:05.728Z,100041.53
2023-05-24T00:36:33.209Z,100033.25
2023-05-24T00:39:00.176Z,100032.91
2023-05-24T00:41:26.998Z,100039.00
2023-05-24T00:43:53.635Z,100035.63
2023-05-24T00:46:32.574Z,100030.84
2023-05-24T00:49:00.493Z,100034.97
2023-05-24T00:51:28.063Z,100034.28
2023-05-24T00:53:55.432Z,100039.22
2023-05-24T00:56:22.666Z,100035.00
2023-05-24T00:58:50.886Z,100041.47
2023-05-24T01:01:17.555Z,100039.78
2023-05-24T01:03:44.337Z,100040.81
2023-05-24T01:06:16.106Z,100047.06
2023-05-24T01:08:50.483Z,100047.91
2023-05-24T01:11:37.611Z,100059.59
2023-05-24T01:14:38.282Z,100052.66
2023-05-24T01:17:09.475Z,100040.50
2023-05-24T01:19:51.369Z,100038.59
2023-05-24T01:22:35.985Z,100034.03
2023-05-24T01:25:11.504Z,100034.03
2023-05-24T01:27:38.879Z,100030.84
2023-05-24T01:30:07.302Z,100038.28
2023-05-24T01:32:34.462Z,100034.06
2023-05-24T01:35:01.182Z,100022.22
2023-05-24T01:37:27.834Z,100030.16
2023-05-24T01:39:55.126Z,100014.75
2023-05-24T01:42:33.204Z,100022.03
2023-05-24T01:45:12.046Z,100017.13
2023-05-24T01:47:45.539Z,100009.66
2023-05-24T01:50:48.169Z,100021.03
2023-05-24T01:53:19.459Z,100022.88
2023-05-24T01:55:49.441Z,100017.13
2023-05-24T01:58:17.469Z,100020.22
2023-05-24T02:00:45.691Z,100016.66
2023-05-24T02:03:14.853Z,100007.38
2023-05-24T02:05:41.593Z,100019.91
2023-05-24T02:08:09.002Z,100018.50
2023-05-24T02:10:38.569Z,100021.22
2023-05-24T02:13:06.158Z,100020.88
2023-05-24T02:15:33.216Z,100025.28
2023-05-24T02:18:01.440Z,100015.09
2023-05-24T02:20:32.144Z,100025.94
2023-05-24T02:22:58.780Z,100020.16
2023-05-24T02:25:25.654Z,100021.03
2023-05-24T02:27:52.364Z,100016.41
2023-05-24T02:30:19.168Z,100022.88
2023-05-24T02:32:46.536Z,100027.66
2023-05-24T02:35:13.294Z,100024.94
2023-05-24T02:37:40.678Z,100020.50
2023-05-24T02:40:07.961Z,100023.22
2023-05-24T02:42:34.758Z,100015.94
2023-05-24T02:45:01.411Z,100007.63
2023-05-24T02:47:28.462Z,100001.34
2023-05-24T02:49:56.223Z,100011.06
2023-05-24T02:52:23.416Z,100006.84
2023-05-24T02:54:50.479Z,100009.72
2023-05-24T02:57:17.125Z,100016.50
2023-05-24T02:59:43.960Z,100022.97
2023-05-24T03:02:13.785Z,100018.22
2023-05-24T03:04:40.556Z,100014.28
2023-05-24T03:07:07.311Z,100025.81
2023-05-24T03:09:33.958Z,100028.38
2023-05-24T03:12:00.748Z,100025.28
2023-05-24T03:14:27.377Z,100023.03
2023-05-24T03:16:54.019Z,100017.09
2023-05-24T03:19:20.696Z,100014.00
2023-05-24T03:21:47.343Z,100011.44
2023-05-24T03:24:14.339Z,100020.06
2023-05-24T03:26:41.167Z,100018.69
2023-05-24T03:29:07.796Z,100022.22
2023-05-24T03:31:34.540Z,100030.38
2023-05-24T03:34:01.413Z,100026.63
2023-05-24T03:36:29.184Z,100018.00
2023-05-24T03:38:58.382Z,100024.13
2023-05-24T03:41:25.442Z,100019.34
2023-05-24T03:43:52.696Z,100031.88
2023-05-24T03:46:19.603Z,100041.69
2023-05-24T03:48:46.390Z,100039.16
2023-05-24T03:51:13.089Z,100041.41
2023-05-24T03:53:39.698Z,100045.50
2023-05-24T03:56:06.586Z,100045.69
2023-05-24T03:58:33.336Z,100051.13
2023-05-24T04:01:01.871Z,100049.91
2023-05-24T04:03:28.654Z,100039.06
2023-05-24T04:05:55.329Z,100041.59
2023-05-24T04:08:22.284Z,100050.22
2023-05-24T04:10:48.888Z,100051.91
2023-05-24T04:13:15.555Z,100053.03
2023-05-24T04:15:42.254Z,100051.84
2023-05-24T04:18:09.041Z,100050.63
2023-05-24T04:20:35.995Z,100053.69
2023-05-24T04:23:02.720Z,100054.63
2023-05-24T04:25:30.187Z,100063.09
2023-05-24T04:27:57.221Z,100061.53
2023-05-24T04:30:23.907Z,100064.16
2023-05-24T04:32:51.414Z,100077.31
2023-05-24T04:35:18.248Z,100073.22
2023-05-24T04:37:45.101Z,100064.34
2023-05-24T04:40:12.418Z,100072.78
2023-05-24T04:42:39.291Z,100068.47
2023-05-24T04:45:07.095Z,100067.06
2023-05-24T04:47:33.904Z,100060.03
2023-05-24T04:50:00.561Z,100064.72
2023-05-24T04:52:27.820Z,100071.78
2023-05-24T04:54:55.565Z,100069.34
2023-05-24T04:57:22.334Z,100061.09
2023-05-24T04:59:48.996Z,100078.00
2023-05-24T05:02:15.767Z,100077.63
2023-05-24T05:04:42.541Z,100083.81
2023-05-24T05:07:09.164Z,100087.94
2023-05-24T05:09:35.935Z,100087.19
2023-05-24T05:12:03.002Z,100088.75
2023-05-24T05:14:29.702Z,100089.13
2023-05-24T05:16:56.575Z,100083.09
2023-05-24T05:19:23.290Z,100084.59
2023-05-24T05:21:49.948Z,100089.09
2023-05-24T05:24:17.305Z,100087.00
2023-05-24T05:26:44.053Z,100085.91
2023-05-24T05:29:10.704Z,100088.50
2023-05-24T05:31:37.336Z,100084.00
2023-05-24T05:34:03.963Z,100082.19
2023-05-24T05:36:31.157Z,100086.91
2023-05-24T05:38:57.729Z,100088.50
2023-05-24T05:41:24.320Z,100087.81
2023-05-24T05:43:50.940Z,100091.88
2023-05-24T05:46:20.519Z,100101.59
2023-05-24T05:48:47.614Z,100087.00
2023-05-24T05:51:14.252Z,100092.03
2023-05-24T05:53:40.851Z,100101.97
2023-05-24T05:56:07.723Z,100094.88
2023-05-24T05:58:34.319Z,100098.69
2023-05-24T06:01:00.999Z,100094.75
2023-05-24T06:03:27.779Z,100105.28
2023-05-24T06:05:54.541Z,100109.31
2023-05-24T06:08:21.224Z,100100.38
2023-05-24T06:10:48.280Z,100098.56
2023-05-24T06:13:15.508Z,100096.66
2023-05-24T06:15:42.225Z,100103.41
2023-05-24T06:18:08.883Z,100102.53
2023-05-24T06:20:36.927Z,100113.69
2023-05-24T06:23:03.758Z,100114.13
2023-05-24T06:25:30.923Z,100111.66
2023-05-24T06:27:57.691Z,100116.47
2023-05-24T06:30:24.433Z,100113.56
2023-05-24T06:32:51.222Z,100119.88
2023-05-24T06:35:17.963Z,100121.53
2023-05-24T06:37:44.609Z,100121.38
2023-05-24T06:40:11.907Z,100124.09
2023-05-24T06:42:39.900Z,100127.94
2023-05-24T06:45:08.407Z,100130.69
2023-05-24T06:47:35.490Z,100135.75
2023-05-24T06:50:04.406Z,100133.44
2023-05-24T06:52:31.296Z,100134.72
2023-05-24T06:54:57.944Z,100137.47
2023-05-24T06:57:25.270Z,100141.06
2023-05-24T06:59:52.055Z,100143.41
2023-05-24T07:02:18.836Z,100144.06
2023-05-24T07:04:45.973Z,100144.31
2023-05-24T07:07:13.705Z,100139.69
2023-05-24T07:09:42.220Z,100136.78
2023-05-24T07:12:09.360Z,100139.72
2023-05-24T07:14:36.182Z,100143.50
2023-05-24T07:17:02.957Z,100141.84
2023-05-24T07:19:29.999Z,100145.44
2023-05-24T07:21:57.086Z,100145.84
2023-05-24T07:24:24.260Z,100154.06
2023-05-24T07:26:52.157Z,100156.19
2023-05-24T07:29:18.768Z,100157.03
2023-05-24T07:31:45.548Z,100153.88
2023-05-24T07:34:12.185Z,100159.53
2023-05-24T07:36:38.745Z,100160.59
2023-05-24T07:39:06.388Z,100165.44
2023-05-24T07:41:33.595Z,100163.31
2023-05-24T07:44:00.460Z,100174.25
2023-05-24T07:46:27.198Z,100163.72
2023-05-24T07:48:53.943Z,100171.69
2023-05-24T07:51:21.586Z,100169.59
2023-05-24T07:53:48.247Z,100164.78
2023-05-24T07:56:15.162Z,100174.66
2023-05-24T07:58:44.073Z,100171.72
2023-05-24T08:01:10.769Z,100172.34
2023-05-24T08:03:38.255Z,100175.13
2023-05-24T08:06:05.707Z,100179.34
2023-05-24T08:08:32.269Z,100177.22
2023-05-24T08:10:58.910Z,100184.16
2023-05-24T08:13:25.506Z,100178.03
2023-05-24T08:15:52.089Z,100184.16
2023-05-24T08:18:19.139Z,100185.25
2023-05-24T08:20:46.255Z,100183.53
2023-05-24T08:23:13.171Z,100187.56
2023-05-24T08:25:40.554Z,100181.47
2023-05-24T08:28:08.655Z,100189.88
2023-05-24T08:30:35.346Z,100188.44
2023-05-24T08:33:02.119Z,100193.88
2023-05-24T08:35:29.273Z,100199.34
2023-05-24T08:37:56.507Z,100202.50
2023-05-24T08:40:25.012Z,100198.69
2023-05-24T08:42:52.870Z,100202.03
2023-05-24T08:45:21.812Z,100196.94
2023-05-24T08:47:50.411Z,100209.59
2023-05-24T08:50:18.221Z,100204.94
2023-05-24T08:52:46.371Z,100215.91
2023-05-24T08:55:13.455Z,100213.56
2023-05-24T08:57:41.466Z,100219.88
2023-05-24T09:00:12.755Z,100209.94
2023-05-24T09:02:42.167Z,100213.69
2023-05-24T09:05:11.681Z,100227.38
2023-05-24T09:07:38.569Z,100229.22
2023-05-24T09:10:07.369Z,100231.38
2023-05-24T09:12:38.732Z,100233.44
2023-05-24T09:15:08.132Z,100238.88
2023-05-24T09:17:36.768Z,100239.25
2023-05-24T09:20:06.986Z,100241.69
2023-05-24T09:22:35.772Z,100232.69
2023-05-24T09:25:05.892Z,100216.72
2023-05-24T09:27:34.466Z,100226.44
2023-05-24T09:30:03.428Z,100225.94
2023-05-24T09:32:31.380Z,100219.19
2023-05-24T09:37:32.766Z,100224.63
2023-05-24T09:40:00.152Z,100230.50
2023-05-24T09:42:28.885Z,100229.28
2023-05-24T09:45:04.930Z,100227.44
2023-05-24T09:47:33.418Z,100222.72
2023-05-24T09:50:01.526Z,100216.84
2023-05-24T09:52:28.345Z,100215.38
2023-05-24T09:54:55.434Z,100215.19
2023-05-24T09:57:25.920Z,100224.28
2023-05-24T09:59:53.042Z,100215.09
2023-05-24T10:02:22.938Z,100227.72
2023-05-24T10:04:57.711Z,100215.94
2023-05-24T10:07:24.895Z,100226.38
2023-05-24T10:09:52.051Z,100228.31
2023-05-24T10:12:23.077Z,100227.91
2023-05-24T10:14:51.110Z,100211.50
2023-05-24T10:17:18.113Z,100203.59
2023-05-24T10:19:45.027Z,100210.75
2023-05-24T10:22:14.248Z,100219.88
2023-05-24T10:24:46.535Z,100212.47
2023-05-24T10:27:17.598Z,100220.97
2023-05-24T10:29:47.081Z,100217.38
2023-05-24T10:32:16.739Z,100220.50
2023-05-24T10:34:44.731Z,100207.44
2023-05-24T10:37:11.473Z,100214.88
2023-05-24T10:39:38.359Z,100209.81
2023-05-24T10:42:09.392Z,100214.13
2023-05-24T10:44:37.282Z,100206.59
2023-05-24T10:47:10.944Z,100206.72
2023-05-24T10:49:39.880Z,100202.91
2023-05-24T10:52:10.626Z,100199.38
2023-05-24T10:54:39.988Z,100199.88
2023-05-24T10:57:09.640Z,100203.47
2023-05-24T10:59:39.797Z,100204.47
2023-05-24T11:02:16.301Z,100203.91
2023-05-24T11:04:46.677Z,100212.03
2023-05-24T11:07:19.280Z,100211.28
2023-05-24T11:09:52.863Z,100203.97
2023-05-24T11:12:23.792Z,100204.50
2023-05-24T11:14:52.549Z,100200.66
2023-05-24T11:17:22.272Z,100199.59
2023-05-24T11:19:54.522Z,100197.84
2023-05-24T11:22:22.960Z,100198.84
2023-05-24T11:24:50.135Z,100195.75
2023-05-24T11:27:17.262Z,100192.84
2023-05-24T11:29:45.532Z,100190.56
2023-05-24T11:32:20.673Z,100188.38
2023-05-24T11:34:48.353Z,100184.78
2023-05-24T11:37:17.939Z,100182.44
2023-05-24T11:39:51.001Z,100185.53
2023-05-24T11:42:17.754Z,100185.78
2023-05-24T11:44:44.616Z,100189.59
2023-05-24T11:47:13.269Z,100177.22
2023-05-24T11:49:39.894Z,100179.47
2023-05-24T11:52:07.491Z,100175.56
2023-05-24T11:54:35.087Z,100184.91
2023-05-24T11:57:02.224Z,100178.78
2023-05-24T11:59:29.602Z,100181.84
2023-05-24T12:02:06.797Z,100179.56
2023-05-24T12:04:34.955Z,100176.81
2023-05-24T12:07:02.180Z,100169.47
2023-05-24T12:09:29.421Z,100176.63
2023-05-24T12:11:58.394Z,100176.56
2023-05-24T12:14:28.571Z,100175.09
2023-05-24T12:16:57.117Z,100174.72
2023-05-24T12:19:33.044Z,100176.44
2023-05-24T12:22:01.535Z,100171.75
2023-05-24T12:24:28.517Z,100182.06
2023-05-24T12:27:06.929Z,100175.59
2023-05-24T12:29:39.804Z,100173.03
2023-05-24T12:32:12.465Z,100173.00
2023-05-24T12:34:43.722Z,100179.25
2023-05-24T12:37:13.205Z,100167.94
2023-05-24T12:39:42.806Z,100160.94
2023-05-24T12:42:10.827Z,100154.53
2023-05-24T12:44:38.370Z,100163.28
2023-05-24T12:47:07.553Z,100158.59
2023-05-24T12:49:34.692Z,100162.03
2023-05-24T12:52:04.045Z,100161.47
2023-05-24T12:54:31.003Z,100154.91
2023-05-24T12:56:59.907Z,100158.09
2023-05-24T12:59:28.776Z,100149.50
2023-05-24T13:01:56.109Z,100145.91
2023-05-24T13:04:26.203Z,100148.59
2023-05-24T13:06:53.307Z,100150.81
2023-05-24T13:09:21.952Z,100144.38
2023-05-24T13:11:48.927Z,100146.06
2023-05-24T13:14:16.794Z,100147.16
2023-05-24T13:16:44.415Z,100150.41
2023-05-24T13:19:11.954Z,100138.69
2023-05-24T13:21:39.153Z,100139.59
2023-05-24T13:24:06.620Z,100152.25
2023-05-24T13:26:38.182Z,100133.75
2023-05-24T13:31:37.720Z,100132.19
2023-05-24T13:34:04.988Z,100120.00
2023-05-24T13:36:31.714Z,100138.91
2023-05-24T13:39:14.295Z,100136.13
2023-05-24T13:41:43.758Z,100128.69
2023-05-24T13:44:11.093Z,100130.81
2023-05-24T13:46:38.501Z,100130.53
2023-05-24T13:49:06.162Z,100121.75
2023-05-24T13:51:33.387Z,100122.22
2023-05-24T13:54:00.547Z,100124.47
2023-05-24T13:56:32.867Z,100123.34
2023-05-24T13:59:04.573Z,100128.41
2023-05-24T14:01:32.009Z,100125.47
2023-05-24T14:04:00.042Z,100117.56
2023-05-24T14:06:26.688Z,100129.75
2023-05-24T14:08:53.642Z,100121.69
2023-05-24T14:11:20.354Z,100121.19
2023-05-24T14:16:18.270Z,100117.25
2023-05-24T14:18:45.834Z,100117.97
2023-05-24T14:21:12.440Z,100117.38
2023-05-24T14:23:39.169Z,100126.09
2023-05-24T14:26:05.824Z,100123.19
2023-05-24T14:28:32.431Z,100135.19
2023-05-24T14:30:59.008Z,100122.28
2023-05-24T14:33:25.705Z,100126.03
2023-05-24T14:35:52.403Z,100119.84
2023-05-24T14:38:19.036Z,100123.81
2023-05-24T14:40:48.197Z,100123.34
2023-05-24T14:43:15.147Z,100121.75
2023-05-24T14:45:42.752Z,100128.72
2023-05-24T14:48:11.465Z,100129.41
2023-05-24T14:50:39.746Z,100126.78
2023-05-24T14:53:12.016Z,100135.47
2023-05-24T14:55:41.810Z,100142.53
2023-05-24T14:58:09.461Z,100142.78
2023-05-24T15:00:36.952Z,100139.50
2023-05-24T15:03:05.805Z,100148.38
2023-05-24T15:05:33.117Z,100146.19
2023-05-24T15:07:59.891Z,100144.31
2023-05-24T15:10:26.753Z,100141.03
2023-05-24T15:12:53.473Z,100150.50
2023-05-24T15:15:22.566Z,100155.00
2023-05-24T15:17:49.599Z,100151.28
2023-05-24T15:20:16.484Z,100148.91
2023-05-24T15:22:43.329Z,100155.75
2023-05-24T15:25:10.715Z,100146.78
2023-05-24T15:27:37.969Z,100150.56
2023-05-24T15:30:05.111Z,100146.97
2023-05-24T15:32:31.784Z,100148.13
2023-05-24T15:35:00.534Z,100152.47
2023-05-24T15:37:27.531Z,100144.88
2023-05-24T15:39:54.359Z,100147.38
2023-05-24T15:42:21.855Z,100148.81
2023-05-24T15:44:48.477Z,100153.66
2023-05-24T15:47:15.103Z,100151.81
2023-05-24T15:49:41.738Z,100147.66
2023-05-24T15:52:10.097Z,100147.97
2023-05-24T15:54:37.991Z,100156.66
2023-05-24T15:57:04.863Z,100149.75
2023-05-24T15:59:31.450Z,100157.28
2023-05-24T16:01:58.058Z,100159.88
2023-05-24T16:04:24.707Z,100157.72
2023-05-24T16:06:51.370Z,100156.66
2023-05-24T16:09:18.016Z,100158.50
2023-05-24T16:11:44.678Z,100154.34
2023-05-24T16:14:11.477Z,100161.94
2023-05-24T16:16:38.384Z,100148.25
2023-05-24T16:19:05.047Z,100165.00
2023-05-24T16:21:32.943Z,100159.66
2023-05-24T16:24:01.877Z,100164.88
2023-05-24T16:26:30.753Z,100165.78
2023-05-24T16:28:57.610Z,100163.31
2023-05-24T16:31:24.443Z,100175.81
2023-05-24T16:33:51.161Z,100182.66
2023-05-24T16:36:17.779Z,100182.69
2023-05-24T16:38:44.382Z,100193.13
2023-05-24T16:41:11.282Z,100186.19
2023-05-24T16:43:37.908Z,100192.41
2023-05-24T16:46:04.584Z,100202.22
2023-05-24T16:48:31.795Z,100200.50
2023-05-24T16:50:58.935Z,100196.53
2023-05-24T16:53:26.877Z,100194.16
2023-05-24T16:55:55.799Z,100202.97
2023-05-24T16:58:29.863Z,100196.09
2023-05-24T17:00:56.817Z,100201.06
2023-05-24T17:03:33.981Z,100210.69
2023-05-24T17:06:03.236Z,100218.22
2023-05-24T17:08:35.633Z,100217.97
2023-05-24T17:11:03.739Z,100218.81
2023-05-24T17:13:30.756Z,100220.47
2023-05-24T17:15:58.431Z,100229.41
2023-05-24T17:18:29.368Z,100230.63
2023-05-24T17:21:01.340Z,100225.31
2023-05-24T17:23:31.032Z,100232.94
2023-05-24T17:25:57.969Z,100233.63
2023-05-24T17:28:28.581Z,100236.16
2023-05-24T17:30:56.822Z,100245.19
2023-05-24T17:33:24.369Z,100249.28
2023-05-24T17:35:51.157Z,100246.53
2023-05-24T17:38:18.460Z,100249.53
2023-05-24T17:40:49.112Z,100251.41
2023-05-24T17:43:15.702Z,100251.72
2023-05-24T17:45:42.608Z,100256.19
2023-05-24T17:48:09.450Z,100262.06
2023-05-24T17:50:36.363Z,100257.50
2023-05-24T17:53:06.048Z,100261.94
2023-05-24T17:55:37.529Z,100258.28
2023-05-24T17:58:04.248Z,100267.19
2023-05-24T18:00:31.524Z,100274.03
2023-05-24T18:03:00.311Z,100279.59
2023-05-24T18:05:27.120Z,100282.19
2023-05-24T18:07:53.750Z,100279.03
2023-05-24T18:10:20.709Z,100289.59
2023-05-24T18:12:47.897Z,100291.84
2023-05-24T18:15:14.687Z,100295.03
2023-05-24T18:17:41.653Z,100296.38
2023-05-24T18:20:08.704Z,100308.22
2023-05-24T18:22:35.403Z,100311.38
2023-05-24T18:25:02.196Z,100306.31
2023-05-24T18:27:28.781Z,100301.84
2023-05-24T18:29:55.450Z,100301.88
2023-05-24T18:32:22.060Z,100310.31
2023-05-24T18:34:49.369Z,100314.72
2023-05-24T18:37:16.362Z,100316.00
2023-05-24T18:39:42.932Z,100312.22
2023-05-24T18:42:09.703Z,100309.91
2023-05-24T18:44:37.976Z,100313.28
2023-05-24T18:47:05.283Z,100312.41
2023-05-24T18:49:35.132Z,100317.25
2023-05-24T18:52:04.901Z,100327.56
2023-05-24T18:54:31.523Z,100324.41
2023-05-24T18:57:00.034Z,100329.28
2023-05-24T18:59:29.245Z,100330.72
2023-05-24T19:01:55.905Z,100334.31
2023-05-24T19:04:22.605Z,100343.34
2023-05-24T19:06:50.244Z,100332.81
2023-05-24T19:09:16.826Z,100338.22
2023-05-24T19:11:47.706Z,100340.06
2023-05-24T19:14:14.364Z,100340.66
2023-05-24T19:16:41.047Z,100335.34
2023-05-24T19:19:07.693Z,100345.41
2023-05-24T19:21:34.275Z,100346.22
2023-05-24T19:24:00.850Z,100354.19
2023-05-24T19:26:27.551Z,100357.47
2023-05-24T19:28:54.218Z,100353.72
2023-05-24T19:31:24.862Z,100360.59
2023-05-24T19:36:25.673Z,100349.72
2023-05-24T19:38:52.652Z,100351.38
2023-05-24T19:41:19.245Z,100356.81
2023-05-24T19:43:45.836Z,100350.91
2023-05-24T19:46:14.744Z,100362.63
2023-05-24T19:48:42.312Z,100364.69
2023-05-24T19:51:09.091Z,100377.69
2023-05-24T19:53:35.728Z,100371.13
2023-05-24T19:56:02.641Z,100376.44
2023-05-24T19:58:30.339Z,100382.50
2023-05-24T20:00:56.930Z,100375.09
2023-05-24T20:03:24.704Z,100377.81
2023-05-24T20:05:51.625Z,100375.75
2023-05-24T20:08:20.845Z,100382.16
2023-05-24T20:10:50.644Z,100376.56
2023-05-24T20:13:17.395Z,100370.19
2023-05-24T20:15:44.628Z,100364.19
2023-05-24T20:18:11.374Z,100369.34
2023-05-24T20:20:38.128Z,100364.66
2023-05-24T20:23:04.867Z,100365.53
2023-05-24T20:25:31.713Z,100361.22
2023-05-24T20:27:58.355Z,100365.16
2023-05-24T20:30:25.678Z,100356.88
2023-05-24T20:32:52.407Z,100358.28
2023-05-24T20:35:19.576Z,100351.78
2023-05-24T20:37:46.528Z,100360.88
2023-05-24T20:40:20.510Z,100359.00
2023-05-24T20:42:47.178Z,100361.22
2023-05-24T20:45:15.858Z,100373.47
2023-05-24T20:47:42.525Z,100375.28
2023-05-24T20:50:09.269Z,100377.53
2023-05-24T20:52:36.408Z,100374.94
2023-05-24T20:55:03.001Z,100390.22
2023-05-24T20:57:29.706Z,100381.75
2023-05-24T20:59:56.309Z,100380.19
2023-05-24T21:02:22.954Z,100374.09
2023-05-24T21:04:49.609Z,100376.41
2023-05-24T21:07:16.364Z,100378.09
2023-05-24T21:09:42.990Z,100380.31
2023-05-24T21:12:09.688Z,100376.91
2023-05-24T21:14:36.283Z,100380.00
2023-05-24T21:17:03.049Z,100379.16
2023-05-24T21:19:29.716Z,100378.66
2023-05-24T21:21:56.516Z,100392.44
2023-05-24T21:24:23.197Z,100390.06
2023-05-24T21:26:49.814Z,100385.03
2023-05-24T21:29:16.412Z,100388.97
2023-05-24T21:31:43.121Z,100387.13
2023-05-24T21:34:09.864Z,100381.22
2023-05-24T21:36:37.748Z,100391.41
2023-05-24T21:39:08.071Z,100382.94
2023-05-24T21:41:36.009Z,100385.00
2023-05-24T21:44:03.809Z,100392.59
2023-05-24T21:46:30.837Z,100387.34
2023-05-24T21:48:57.708Z,100392.81
2023-05-24T21:51:24.405Z,100399.59
2023-05-24T21:53:51.813Z,100404.72
2023-05-24T21:56:18.489Z,100401.16
2023-05-24T21:58:45.117Z,100410.00
2023-05-24T22:01:11.786Z,100413.72
2023-05-24T22:03:38.586Z,100408.13
2023-05-24T22:06:05.491Z,100416.91
2023-05-24T22:08:32.078Z,100411.16
2023-05-24T22:10:58.680Z,100417.28
2023-05-24T22:13:25.507Z,100420.00
2023-05-24T22:15:52.129Z,100429.34
2023-05-24T22:18:21.121Z,100424.25
2023-05-24T22:20:50.929Z,100431.88
2023-05-24T22:23:17.762Z,100436.16
2023-05-24T22:25:44.905Z,100430.19
2023-05-24T22:28:11.724Z,100437.16
2023-05-24T22:30:38.303Z,100436.97
2023-05-24T22:33:04.986Z,100441.72
2023-05-24T22:35:32.410Z,100440.03
2023-05-24T22:37:59.092Z,100441.88
2023-05-24T22:40:25.770Z,100444.94
2023-05-24T22:42:52.439Z,100449.03
2023-05-24T22:45:19.113Z,100447.84
2023-05-24T22:47:49.140Z,100443.78
2023-05-24T22:50:16.176Z,100434.25
2023-05-24T22:52:43.075Z,100445.63
2023-05-24T22:55:11.006Z,100456.13
2023-05-24T22:57:37.780Z,100454.91
2023-05-24T23:00:05.839Z,100459.28
2023-05-24T23:02:33.630Z,100460.81
2023-05-24T23:05:00.440Z,100460.28
2023-05-24T23:07:27.239Z,100456.19
2023-05-24T23:09:54.501Z,100463.31
2023-05-24T23:12:21.118Z,100465.72
2023-05-24T23:14:47.759Z,100460.09
2023-05-24T23:17:14.535Z,100465.88
2023-05-24T23:19:42.731Z,100466.34
2023-05-24T23:22:12.969Z,100461.94
2023-05-24T23:24:42.266Z,100465.34
2023-05-24T23:27:09.244Z,100477.69
2023-05-24T23:29:35.956Z,100472.59
2023-05-24T23:32:02.604Z,100470.88
2023-05-24T23:34:29.257Z,100477.16
2023-05-24T23:36:55.876Z,100478.13
2023-05-24T23:39:22.499Z,100473.56
2023-05-24T23:41:49.093Z,100475.78
2023-05-24T23:44:16.035Z,100483.84
2023-05-24T23:46:42.687Z,100483.00
2023-05-24T23:49:09.320Z,100489.69
2023-05-24T23:51:36.099Z,100484.97
2023-05-24T23:54:02.686Z,100481.44
2023-05-24T23:56:29.274Z,100486.38
2023-05-24T23:58:56.009Z,100484.03
